Time;durP1;ratioP1;P1;durP2;ratioP2;P2;SDS_P1;SDS_P2;PMS_P1;PMS_P2;Temp;Humidity;BMP_temperature;BMP_pressure;BME280_temperature;BME280_humidity;BME280_pressure;Samples;Min_cycle;Max_cycle;Signal;HPM_P1;HPM_P2
2021/05/09 00:01:33;;;;;;;8.25;3.05;;;;;;;23.27;37.93;100226.34;4484805;32;33948;-63
2021/05/09 00:04:02;;;;;;;7.03;3.22;;;;;;;23.27;37.88;100223.63;4484859;32;34591;-63
2021/05/09 00:06:29;;;;;;;6.05;3.08;;;;;;;23.28;37.95;100227.19;4484570;32;33282;-62
2021/05/09 00:08:57;;;;;;;6.62;2.92;;;;;;;23.27;37.97;100228.22;4484432;32;34845;-63
2021/05/09 00:11:24;;;;;;;7.78;3.45;;;;;;;23.28;37.96;100229.91;4484564;32;33646;-62
2021/05/09 00:13:51;;;;;;;8.57;3.33;;;;;;;23.28;37.98;100232.63;4484631;32;33809;-63
2021/05/09 00:16:18;;;;;;;9.20;3.33;;;;;;;23.27;38.12;100230.94;4484786;32;33442;-63
2021/05/09 00:18:45;;;;;;;7.37;3.15;;;;;;;23.26;38.15;100224.66;4484169;32;34451;-62
2021/05/09 00:21:13;;;;;;;8.20;3.15;;;;;;;23.26;38.19;100226.53;4484541;32;33873;-62
2021/05/09 00:23:40;;;;;;;8.90;3.72;;;;;;;23.26;38.27;100230.09;4484425;32;34808;-63
2021/05/09 00:26:08;;;;;;;6.87;2.95;;;;;;;23.26;38.23;100232.81;4484399;32;34457;-62
2021/05/09 00:28:35;;;;;;;8.73;3.87;;;;;;;23.26;38.27;100227.37;4484331;32;34614;-63
2021/05/09 00:31:02;;;;;;;9.70;3.72;;;;;;;23.25;38.30;100231.16;4484510;32;34492;-63
2021/05/09 00:33:29;;;;;;;12.82;3.92;;;;;;;23.25;38.28;100233.87;4484156;32;33769;-63
2021/05/09 00:36:11;;;;;;;8.98;3.42;;;;;;;23.26;38.24;100234.72;4484508;32;33488;-62
2021/05/09 00:38:38;;;;;;;6.75;3.60;;;;;;;23.26;38.13;100230.09;4484415;32;33826;-63
2021/05/09 00:41:05;;;;;;;9.07;4.10;;;;;;;23.25;38.11;100224.88;4484275;32;34814;-63
2021/05/09 00:43:32;;;;;;;10.57;3.62;;;;;;;23.25;38.35;100231.16;4484224;32;33739;-63
2021/05/09 00:46:00;;;;;;;10.70;4.28;;;;;;;23.24;38.38;100226.78;4484538;32;34263;-62
2021/05/09 00:48:35;;;;;;;9.35;3.78;;;;;;;23.25;38.31;100224.88;4483972;32;33789;-63
2021/05/09 00:51:02;;;;;;;8.98;3.40;;;;;;;23.25;38.30;100224.88;4470596;32;33807;-63
2021/05/09 00:53:29;;;;;;;8.38;3.50;;;;;;;23.24;38.31;100221.31;4483749;32;33748;-63
2021/05/09 00:55:57;;;;;;;9.07;3.78;;;;;;;23.24;38.33;100224.03;4470214;32;34036;-63
2021/05/09 00:58:25;;;;;;;9.60;3.62;;;;;;;23.23;38.33;100210.66;4483072;32;33988;-62
2021/05/09 01:00:52;;;;;;;7.62;3.65;;;;;;;23.24;38.32;100220.50;4482957;32;33952;-63
2021/05/09 01:03:26;;;;;;;11.82;4.03;;;;;;;23.25;38.32;100219.44;4482830;32;34522;-63
2021/05/09 01:05:55;;;;;;;7.85;3.60;;;;;;;23.24;38.31;100220.50;4483405;32;33011;-63
2021/05/09 01:08:22;;;;;;;9.82;4.45;;;;;;;23.23;38.35;100214.22;4470226;32;33800;-62
2021/05/09 01:10:49;;;;;;;8.57;3.50;;;;;;;23.23;38.31;100213.37;4484259;32;33766;-62
2021/05/09 01:13:17;;;;;;;8.10;3.85;;;;;;;23.22;38.40;100204.34;4484030;32;34128;-63
2021/05/09 01:15:44;;;;;;;10.55;4.03;;;;;;;23.23;38.44;100213.37;4482799;31;33432;-63
2021/05/09 01:18:11;;;;;;;9.20;4.12;;;;;;;23.22;38.39;100209.78;4484172;32;32264;-63
2021/05/09 01:20:39;;;;;;;7.65;4.10;;;;;;;23.23;38.42;100216.09;4483318;32;33951;-62
2021/05/09 01:23:06;;;;;;;8.98;3.60;;;;;;;23.21;38.47;100213.56;4484385;32;33942;-63
2021/05/09 01:25:34;;;;;;;9.57;4.05;;;;;;;23.20;38.49;100209.19;4484268;32;33329;-62
2021/05/09 01:28:01;;;;;;;7.20;3.62;;;;;;;23.21;38.49;100202.69;4484146;32;33758;-62
2021/05/09 01:30:28;;;;;;;8.80;4.07;;;;;;;23.21;38.48;100204.59;4483631;32;34877;-63
2021/05/09 01:32:56;;;;;;;12.23;4.75;;;;;;;23.21;38.52;100197.25;4484082;32;34398;-63
2021/05/09 01:35:24;;;;;;;7.82;3.72;;;;;;;23.20;38.50;100200.19;4484190;32;33078;-62
2021/05/09 01:37:51;;;;;;;8.40;4.43;;;;;;;23.21;38.56;100199.13;4483846;32;33548;-62
2021/05/09 01:40:18;;;;;;;9.10;4.10;;;;;;;23.20;38.62;100189.31;4482862;32;33879;-62
2021/05/09 01:42:46;;;;;;;9.48;4.22;;;;;;;23.19;38.58;100188.47;4484207;32;33687;-63
2021/05/09 01:45:14;;;;;;;8.68;4.22;;;;;;;23.20;38.57;100197.47;4483904;32;34634;-63
2021/05/09 01:47:42;;;;;;;11.60;4.30;;;;;;;23.20;38.58;100201.03;4484012;32;33856;-62
2021/05/09 01:50:12;;;;;;;9.50;4.53;;;;;;;23.19;38.50;100199.34;4484228;32;33775;-62
2021/05/09 01:52:39;;;;;;;9.43;4.70;;;;;;;23.19;38.53;100203.97;4483635;32;33301;-62
2021/05/09 01:55:07;;;;;;;10.60;5.32;;;;;;;23.19;38.61;100193.91;4483667;32;33358;-64
2021/05/09 01:57:36;;;;;;;10.18;4.62;;;;;;;23.18;38.70;100200.41;4484086;32;33931;-63
2021/05/09 02:00:11;;;;;;;8.52;4.75;;;;;;;23.20;38.56;100202.91;4483238;32;33859;-63
2021/05/09 02:02:45;;;;;;;11.02;4.65;;;;;;;23.17;38.52;100202.31;4483845;32;33836;-63
2021/05/09 02:05:14;;;;;;;8.65;4.55;;;;;;;23.18;38.64;100208.59;4483679;32;33566;-62
2021/05/09 02:07:41;;;;;;;8.23;4.37;;;;;;;23.19;38.82;100203.97;4483701;32;34809;-61
2021/05/09 02:10:10;;;;;;;10.55;4.53;;;;;;;23.19;38.79;100214.84;4484090;32;33876;-63
2021/05/09 02:12:37;;;;;;;10.15;4.47;;;;;;;23.19;38.78;100206.69;4482782;32;33556;-63
2021/05/09 02:15:06;;;;;;;7.82;4.18;;;;;;;23.17;38.75;100205.03;4482386;32;33270;-63
2021/05/09 02:17:35;;;;;;;11.30;4.83;;;;;;;23.17;38.81;100204.16;4483586;32;33549;-63
2021/05/09 02:20:04;;;;;;;10.80;5.15;;;;;;;23.17;38.82;100196.87;4483876;32;34917;-62
2021/05/09 02:22:32;;;;;;;9.43;4.53;;;;;;;23.16;38.83;100202.50;4483830;32;33867;-62
2021/05/09 02:24:59;;;;;;;14.00;5.20;;;;;;;23.17;38.83;100194.13;4483358;32;34196;-62
2021/05/09 02:27:26;;;;;;;11.15;4.70;;;;;;;23.17;38.84;100206.87;4483455;32;34519;-63
2021/05/09 02:29:54;;;;;;;9.85;4.65;;;;;;;23.16;38.84;100205.22;4483760;32;33916;-62
2021/05/09 02:32:22;;;;;;;11.68;5.10;;;;;;;23.15;38.83;100207.13;4483556;32;33504;-63
2021/05/09 02:34:50;;;;;;;10.02;4.87;;;;;;;23.15;38.85;100207.13;4483323;32;33423;-63
2021/05/09 02:37:18;;;;;;;10.63;4.95;;;;;;;23.15;38.89;100215.28;4483639;32;34723;-63
2021/05/09 02:39:46;;;;;;;10.85;5.05;;;;;;;23.15;38.89;100209.84;4483516;32;34648;-62
2021/05/09 02:42:13;;;;;;;11.77;4.93;;;;;;;23.15;38.92;100212.56;4483399;32;34713;-63
2021/05/09 02:44:40;;;;;;;9.63;4.53;;;;;;;23.15;38.95;100209.00;4483510;32;33277;-62
2021/05/09 02:47:09;;;;;;;11.23;5.00;;;;;;;23.15;38.93;100218.00;4481445;32;32812;-63
2021/05/09 02:49:38;;;;;;;10.43;4.40;;;;;;;23.16;38.95;100218.84;4483469;32;34797;-63
2021/05/09 02:52:05;;;;;;;9.93;4.87;;;;;;;23.16;38.94;100219.66;4483443;32;34776;-63
2021/05/09 02:54:33;;;;;;;9.73;4.53;;;;;;;23.15;38.87;100225.34;4483192;32;33426;-63
2021/05/09 02:57:00;;;;;;;8.32;4.90;;;;;;;23.15;38.92;100226.16;4483340;32;33809;-63
2021/05/09 02:59:27;;;;;;;11.05;4.95;;;;;;;23.15;38.97;100228.88;4483274;32;33585;-62
2021/05/09 03:01:55;;;;;;;9.70;4.65;;;;;;;23.15;39.02;100226.16;4483164;32;33755;-63
2021/05/09 03:04:23;;;;;;;12.30;4.97;;;;;;;23.15;38.93;100231.62;4483107;32;34143;-63
2021/05/09 03:06:50;;;;;;;11.07;5.28;;;;;;;23.14;38.90;100220.94;4482797;32;33859;-63
2021/05/09 03:09:17;;;;;;;10.85;4.65;;;;;;;23.15;38.88;100234.34;4482719;32;33858;-63
2021/05/09 03:11:45;;;;;;;11.90;4.60;;;;;;;23.15;38.99;100238.94;4483501;32;34932;-63
2021/05/09 03:14:12;;;;;;;13.23;4.65;;;;;;;23.15;39.01;100239.78;4485180;32;33007;-62
2021/05/09 03:16:39;;;;;;;9.25;4.40;;;;;;;23.14;38.98;100238.13;4485054;32;33783;-63
2021/05/09 03:19:15;;;;;;;8.52;4.10;;;;;;;23.14;38.99;100237.28;4485036;32;34628;-63
2021/05/09 03:21:42;;;;;;;7.85;3.87;;;;;;;23.14;38.96;100238.13;4485067;32;33503;-63
2021/05/09 03:24:10;;;;;;;10.45;4.37;;;;;;;23.15;38.97;100242.50;4484907;32;33169;-63
2021/05/09 03:26:37;;;;;;;9.35;4.47;;;;;;;23.14;38.99;100240.84;4485259;32;34545;-62
2021/05/09 03:29:04;;;;;;;8.85;4.43;;;;;;;23.14;39.04;100240.00;4485014;32;33514;-62
2021/05/09 03:31:32;;;;;;;9.32;4.25;;;;;;;23.14;39.03;100243.56;4484991;32;33593;-63
2021/05/09 03:34:00;;;;;;;8.23;4.10;;;;;;;23.13;39.00;100241.88;4484526;32;33416;-61
2021/05/09 03:36:27;;;;;;;8.50;4.28;;;;;;;23.14;39.15;100251.72;4485017;32;34877;-63
2021/05/09 03:38:55;;;;;;;9.68;4.12;;;;;;;23.15;39.08;100253.38;4484953;32;34661;-63
2021/05/09 03:41:22;;;;;;;10.45;4.43;;;;;;;23.13;39.14;100252.78;4484842;32;33948;-62
2021/05/09 03:43:50;;;;;;;10.13;4.10;;;;;;;23.13;39.00;100255.50;4484815;32;33534;-62
2021/05/09 03:46:17;;;;;;;9.80;4.15;;;;;;;23.13;39.20;100246.50;4484674;32;34544;-63
2021/05/09 03:48:44;;;;;;;8.60;4.00;;;;;;;23.13;39.15;100247.34;4484848;32;33814;-62
2021/05/09 03:51:11;;;;;;;9.02;3.87;;;;;;;23.13;39.15;100251.94;4484831;32;33753;-63
2021/05/09 03:53:39;;;;;;;8.68;4.12;;;;;;;23.13;39.14;100255.50;4484749;32;34162;-61
2021/05/09 03:56:06;;;;;;;8.82;3.90;;;;;;;23.13;39.17;100251.94;4485015;32;33880;-62
2021/05/09 03:58:33;;;;;;;7.75;3.72;;;;;;;23.11;39.12;100260.31;4484714;32;34954;-63
2021/05/09 04:01:00;;;;;;;8.90;4.03;;;;;;;23.13;39.14;100257.41;4484626;32;34668;-62
2021/05/09 04:03:29;;;;;;;7.72;3.75;;;;;;;23.12;39.17;100263.84;4484692;32;34258;-64
2021/05/09 04:05:56;;;;;;;8.50;3.70;;;;;;;23.11;39.17;100262.19;4484443;32;34833;-63
2021/05/09 04:08:24;;;;;;;6.57;3.67;;;;;;;23.12;39.14;100266.59;4484453;32;33739;-63
2021/05/09 04:10:52;;;;;;;9.10;3.65;;;;;;;23.12;39.11;100269.31;4484664;32;34481;-62
2021/05/09 04:13:19;;;;;;;8.52;3.62;;;;;;;23.11;39.13;100273.91;4484676;32;33255;-62
2021/05/09 04:15:47;;;;;;;8.90;4.12;;;;;;;23.13;39.04;100279.16;4484393;32;33675;-63
2021/05/09 04:18:15;;;;;;;10.15;4.03;;;;;;;23.11;39.11;100273.91;4484631;32;34015;-63
2021/05/09 04:20:42;;;;;;;5.78;3.15;;;;;;;23.12;39.09;100270.13;4484868;32;33838;-62
2021/05/09 04:23:16;;;;;;;7.90;3.50;;;;;;;23.12;39.17;100277.47;4484336;32;34464;-63
2021/05/09 04:25:50;;;;;;;9.18;3.33;;;;;;;23.11;39.23;100282.09;4484458;32;35109;-62
2021/05/09 04:28:18;;;;;;;8.52;3.50;;;;;;;23.12;39.20;100291.91;4478629;32;33530;-61
2021/05/09 04:30:46;;;;;;;7.80;3.58;;;;;;;23.11;39.22;100289.41;4474322;32;34006;-61
2021/05/09 04:33:13;;;;;;;8.65;3.90;;;;;;;23.11;39.23;100287.53;4475859;32;33491;-61
2021/05/09 04:35:41;;;;;;;6.78;3.30;;;;;;;23.11;39.24;100286.69;4476692;32;33462;-61
2021/05/09 04:38:10;;;;;;;7.18;3.70;;;;;;;23.09;39.18;100284.19;4484420;32;34568;-61
2021/05/09 04:40:38;;;;;;;8.02;3.72;;;;;;;23.09;39.16;100288.81;4484281;32;33905;-62
2021/05/09 04:43:09;;;;;;;6.72;3.40;;;;;;;23.09;39.13;100292.34;4484313;32;33287;-61
2021/05/09 04:45:36;;;;;;;7.75;3.12;;;;;;;23.09;39.24;100291.53;4474537;32;33522;-61
2021/05/09 04:48:04;;;;;;;7.55;3.67;;;;;;;23.11;39.21;100294.84;4468771;32;34905;-62
2021/05/09 04:50:31;;;;;;;7.15;3.30;;;;;;;23.08;39.22;100296.12;4468668;32;34693;-61
2021/05/09 04:52:59;;;;;;;7.78;3.70;;;;;;;23.08;39.15;100296.12;4468684;32;33080;-61
2021/05/09 04:55:26;;;;;;;6.35;3.40;;;;;;;23.09;39.12;100302.41;4468744;32;34838;-61
2021/05/09 04:57:53;;;;;;;12.85;3.70;;;;;;;23.08;39.19;100304.31;4468466;32;35571;-61
2021/05/09 05:00:21;;;;;;;8.60;3.80;;;;;;;23.07;39.12;100297.16;4468478;32;34453;-61
2021/05/09 05:02:48;;;;;;;5.97;3.03;;;;;;;23.08;39.19;100307.03;4467392;32;33392;-61
2021/05/09 05:05:15;;;;;;;6.65;3.08;;;;;;;23.08;39.16;100307.03;4468593;32;33711;-61
2021/05/09 05:07:43;;;;;;;7.87;3.60;;;;;;;23.09;39.18;100302.41;4468415;32;33573;-61
2021/05/09 05:10:10;;;;;;;6.60;3.40;;;;;;;23.08;39.21;100306.16;4468529;32;33858;-61
2021/05/09 05:12:37;;;;;;;9.43;3.58;;;;;;;23.08;39.19;100304.31;4468781;32;33304;-61
2021/05/09 05:15:05;;;;;;;5.80;3.05;;;;;;;23.07;39.29;100305.31;4468639;32;33745;-60
2021/05/09 05:17:32;;;;;;;7.47;3.17;;;;;;;23.08;39.27;100304.31;4468679;32;34053;-60
2021/05/09 05:19:59;;;;;;;7.40;3.35;;;;;;;23.08;39.27;100307.03;4468408;32;34024;-61
2021/05/09 05:22:26;;;;;;;5.93;2.78;;;;;;;23.08;39.19;100304.31;4480146;32;33619;-62
2021/05/09 05:24:54;;;;;;;6.25;2.80;;;;;;;23.08;39.20;100306.16;4484041;32;33580;-61
2021/05/09 05:27:21;;;;;;;9.00;3.22;;;;;;;23.09;39.13;100302.41;4483902;32;34875;-61
2021/05/09 05:29:48;;;;;;;6.28;3.15;;;;;;;23.09;39.20;100296.97;4484168;32;33726;-61
2021/05/09 05:32:16;;;;;;;11.88;3.15;;;;;;;23.09;39.20;100305.13;4481404;32;82346;-60
2021/05/09 05:34:43;;;;;;;6.50;3.47;;;;;;;23.09;39.15;100307.84;4482733;32;33679;-60
2021/05/09 05:37:10;;;;;;;7.30;3.08;;;;;;;23.09;39.15;100308.69;4483968;32;33879;-61
2021/05/09 05:39:37;;;;;;;6.97;2.60;;;;;;;23.08;39.18;100301.59;4484069;32;33993;-61
2021/05/09 05:42:04;;;;;;;6.20;3.12;;;;;;;23.08;39.19;100307.03;4483209;32;33350;-63
2021/05/09 05:44:31;;;;;;;6.20;3.00;;;;;;;23.09;39.23;100303.25;4482670;32;33801;-63
2021/05/09 05:46:59;;;;;;;7.32;3.20;;;;;;;23.10;39.19;100306.81;4482305;32;33862;-63
2021/05/09 05:49:26;;;;;;;7.68;3.67;;;;;;;23.10;39.18;100314.97;4468238;32;33740;-62
2021/05/09 05:51:53;;;;;;;6.90;3.12;;;;;;;23.11;39.15;100316.62;4467134;32;33347;-63
2021/05/09 05:54:20;;;;;;;7.18;3.12;;;;;;;23.11;39.11;100316.62;4468226;32;33993;-63
2021/05/09 05:56:47;;;;;;;7.15;3.22;;;;;;;23.10;39.17;100320.41;4468112;32;33771;-62
2021/05/09 05:59:14;;;;;;;7.60;2.85;;;;;;;23.10;39.21;100314.97;4470661;32;33707;-62
2021/05/09 06:01:41;;;;;;;6.75;2.97;;;;;;;23.11;39.33;100313.91;4483924;32;33117;-63
2021/05/09 06:04:09;;;;;;;6.40;3.00;;;;;;;23.10;39.37;100317.69;4483686;32;33579;-63
2021/05/09 06:06:36;;;;;;;6.22;2.78;;;;;;;23.10;39.37;100312.25;4483803;32;33716;-63
2021/05/09 06:09:04;;;;;;;7.50;3.35;;;;;;;23.11;39.31;100317.47;4483736;32;34604;-64
2021/05/09 06:11:32;;;;;;;6.68;2.78;;;;;;;23.10;39.44;100320.41;4483598;32;34372;-63
2021/05/09 06:13:59;;;;;;;6.53;3.17;;;;;;;23.10;39.41;100313.09;4483707;32;33916;-64
2021/05/09 06:16:46;;;;;;;6.68;2.85;;;;;;;23.09;39.40;100314.13;4483535;32;34735;-63
2021/05/09 06:19:13;;;;;;;5.35;2.95;;;;;;;23.11;39.41;100312.03;4483752;32;35464;-63
2021/05/09 06:21:40;;;;;;;9.48;3.50;;;;;;;23.09;39.30;100305.13;4483618;32;33270;-63
2021/05/09 06:24:08;;;;;;;5.95;2.62;;;;;;;23.10;39.27;100317.69;4483485;32;34474;-62
2021/05/09 06:26:35;;;;;;;6.93;3.10;;;;;;;23.09;39.36;100307.84;4483694;32;33769;-63
2021/05/09 06:29:03;;;;;;;8.68;2.70;;;;;;;23.09;39.31;100311.41;4483585;32;33741;-64
2021/05/09 06:31:30;;;;;;;6.57;3.67;;;;;;;23.08;39.36;100312.47;4483204;32;32960;-63
2021/05/09 06:33:57;;;;;;;5.43;2.67;;;;;;;23.09;39.34;100313.31;4483188;32;35370;-63
2021/05/09 06:36:25;;;;;;;9.15;2.70;;;;;;;23.08;39.31;100312.47;4476466;32;33511;-61
2021/05/09 06:38:52;;;;;;;5.50;3.03;;;;;;;23.09;39.24;100313.31;4467538;32;34583;-62
2021/05/09 06:41:20;;;;;;;8.27;2.78;;;;;;;23.08;39.33;100315.19;4467630;32;34418;-62
2021/05/09 06:43:51;;;;;;;6.00;2.72;;;;;;;23.08;39.31;100317.91;4467922;32;33572;-63
2021/05/09 06:46:22;;;;;;;6.20;2.40;;;;;;;23.09;39.31;100311.41;4474722;32;33926;-62
2021/05/09 06:48:50;;;;;;;7.28;2.83;;;;;;;23.09;39.29;100310.59;4473661;32;34786;-61
2021/05/09 06:51:18;;;;;;;6.93;2.58;;;;;;;23.09;39.20;100314.13;4474412;32;33379;-62
2021/05/09 06:53:46;;;;;;;6.70;2.65;;;;;;;23.11;39.15;100312.03;4465394;32;34335;-61
2021/05/09 06:56:13;;;;;;;7.07;2.80;;;;;;;23.11;39.24;100311.19;4469379;32;33829;-62
2021/05/09 06:58:41;;;;;;;5.43;2.45;;;;;;;23.12;39.29;100310.97;4469078;32;34046;-62
2021/05/09 07:01:08;;;;;;;5.32;2.37;;;;;;;23.12;39.34;100313.69;4468169;32;33552;-61
2021/05/09 07:03:35;;;;;;;5.70;2.75;;;;;;;23.13;39.37;100299.06;4475058;32;33831;-61
2021/05/09 07:06:02;;;;;;;4.62;2.20;;;;;;;23.13;39.33;100298.22;4485240;32;33804;-61
2021/05/09 07:08:30;;;;;;;9.85;2.58;;;;;;;23.12;39.39;100302.81;4485159;32;34744;-61
2021/05/09 07:10:57;;;;;;;5.70;2.28;;;;;;;23.14;39.33;100305.34;4485132;32;33384;-61
2021/05/09 07:13:24;;;;;;;5.18;2.60;;;;;;;23.15;39.19;100302.38;4484938;32;35074;-62
2021/05/09 07:15:52;;;;;;;5.68;2.20;;;;;;;23.14;39.31;100299.88;4484925;32;33793;-61
2021/05/09 07:18:21;;;;;;;4.55;1.98;;;;;;;23.14;39.35;100298.00;4485119;32;34642;-61
2021/05/09 07:21:01;;;;;;;12.65;3.67;;;;;;;23.15;39.32;100290.66;4484909;32;33261;-62
2021/05/09 07:23:30;;;;;;;10.90;3.60;;;;;;;23.10;38.50;100299.47;4484910;32;33857;-62
2021/05/09 07:25:58;;;;;;;13.95;4.28;;;;;;;23.09;37.20;100297.81;4485054;32;33834;-61
2021/05/09 07:28:25;;;;;;;14.87;4.43;;;;;;;23.08;36.64;100300.72;4485009;32;33603;-62
2021/05/09 07:30:52;;;;;;;16.90;4.10;;;;;;;23.01;35.54;100298.03;4484803;32;33539;-61
2021/05/09 07:33:19;;;;;;;13.02;4.07;;;;;;;23.02;36.36;100299.69;4484814;32;33637;-61
2021/05/09 07:35:46;;;;;;;10.80;4.12;;;;;;;23.02;36.23;100309.75;4484846;32;35117;-62
2021/05/09 07:38:13;;;;;;;10.35;4.03;;;;;;;23.01;36.32;100305.34;4484811;32;33830;-61
2021/05/09 07:40:41;;;;;;;11.23;3.72;;;;;;;23.00;36.19;100299.06;4475439;32;32899;-62
2021/05/09 07:43:13;;;;;;;12.27;4.25;;;;;;;23.02;35.39;100296.12;4469263;32;33786;-62
2021/05/09 07:45:42;;;;;;;11.75;3.83;;;;;;;23.04;36.88;100288.59;4469115;32;33821;-60
2021/05/09 07:48:09;;;;;;;11.07;3.58;;;;;;;23.00;36.86;100298.25;4468859;32;33949;-62
2021/05/09 07:50:37;;;;;;;15.25;4.00;;;;;;;23.01;36.72;100294.47;4469075;32;33520;-62
2021/05/09 07:53:05;;;;;;;14.15;3.83;;;;;;;23.02;35.37;100294.25;4469005;32;33850;-62
2021/05/09 07:55:32;;;;;;;10.20;4.40;;;;;;;23.02;35.15;100293.41;4469081;32;34771;-62
2021/05/09 07:57:59;;;;;;;13.23;4.15;;;;;;;22.99;35.30;100294.69;4468711;32;34023;-62
2021/05/09 08:00:26;;;;;;;12.68;4.43;;;;;;;22.99;35.60;100307.44;4469665;32;33370;-61
2021/05/09 08:02:54;;;;;;;13.80;3.62;;;;;;;23.01;35.58;100311.63;4482756;32;33520;-63
2021/05/09 08:05:22;;;;;;;10.20;3.97;;;;;;;23.00;35.45;100309.13;4484702;32;33966;-62
2021/05/09 08:07:56;;;;;;;11.68;4.20;;;;;;;23.02;35.77;100310.56;4483912;32;33840;-64
2021/05/09 08:10:24;;;;;;;12.37;4.37;;;;;;;22.97;35.37;100313.09;4484518;32;33348;-63
2021/05/09 08:12:51;;;;;;;10.68;3.67;;;;;;;22.97;35.55;100304.94;4484579;32;34109;-63
2021/05/09 08:15:21;;;;;;;12.30;3.50;;;;;;;22.97;35.32;100320.41;4484415;32;33861;-63
2021/05/09 08:17:48;;;;;;;12.77;3.85;;;;;;;22.95;35.20;100322.53;4484742;32;34369;-63
2021/05/09 08:20:15;;;;;;;11.77;3.50;;;;;;;22.94;35.11;100315.37;4480987;32;34025;-62
2021/05/09 08:22:46;;;;;;;11.05;3.70;;;;;;;22.97;35.27;100310.38;4482108;32;33715;-60
2021/05/09 08:25:14;;;;;;;16.52;3.87;;;;;;;22.99;34.97;100310.16;4483863;32;33808;-62
2021/05/09 08:27:49;;;;;;;12.25;4.32;;;;;;;23.02;35.07;100320.62;4483590;32;33597;-63
2021/05/09 08:30:18;;;;;;;10.88;3.78;;;;;;;23.03;35.30;100306.78;4483587;32;33346;-62
2021/05/09 08:32:45;;;;;;;16.00;3.62;;;;;;;23.03;35.53;100301.34;4483672;32;34617;-60
2021/05/09 08:35:12;;;;;;;14.80;4.15;;;;;;;23.03;35.70;100312.25;4483289;32;34930;-59
2021/05/09 08:37:40;;;;;;;10.02;3.85;;;;;;;23.05;35.88;100310.16;4483843;32;34144;-59
2021/05/09 08:40:08;;;;;;;13.05;3.72;;;;;;;23.06;35.96;100306.38;4483319;32;33615;-61
2021/05/09 08:42:35;;;;;;;12.30;3.28;;;;;;;23.08;36.13;100306.16;4483421;32;33512;-62
2021/05/09 08:45:03;;;;;;;15.25;3.72;;;;;;;23.09;36.26;100303.25;4483675;32;35150;-60
2021/05/09 08:47:37;;;;;;;17.40;4.15;;;;;;;23.11;36.34;100303.84;4483549;32;34581;-62
2021/05/09 08:50:15;;;;;;;10.57;3.60;;;;;;;23.14;36.44;100306.16;4470653;32;33321;-63
2021/05/09 08:52:45;;;;;;;11.43;3.60;;;;;;;23.11;36.80;100301.13;4484472;32;34820;-63
2021/05/09 08:55:25;;;;;;;11.30;3.65;;;;;;;23.13;36.88;100296.34;4484273;32;34753;-62
2021/05/09 08:57:56;;;;;;;14.95;3.42;;;;;;;23.15;36.83;100299.66;4479489;32;33856;-63
2021/05/09 09:00:25;;;;;;;15.55;4.53;;;;;;;23.14;36.90;100294.44;4476929;31;33822;-65
2021/05/09 09:03:01;;;;;;;25.40;4.72;;;;;;;23.11;36.91;100292.97;4473326;31;33961;-62
2021/05/09 09:05:45;;;;;;;11.43;3.35;;;;;;;23.13;36.96;100299.06;4477110;32;33866;-62
2021/05/09 09:08:17;;;;;;;19.23;3.97;;;;;;;23.17;36.87;100297.59;4483622;32;34544;-60
2021/05/09 09:10:51;;;;;;;13.18;3.53;;;;;;;23.17;36.93;100310.34;4483848;32;34041;-62
2021/05/09 09:13:31;;;;;;;20.02;4.40;;;;;;;23.18;36.98;100306.59;4483400;32;33879;-63
2021/05/09 09:16:02;;;;;;;18.27;4.07;;;;;;;23.21;37.02;100302.59;4483679;31;33808;-61
2021/05/09 09:18:36;;;;;;;17.60;3.80;;;;;;;23.19;37.11;100308.25;4483269;32;34695;-62
2021/05/09 09:21:29;;;;;;;14.32;4.03;;;;;;;23.20;37.14;100311.81;4474558;32;34202;-62
2021/05/09 09:24:06;;;;;;;13.30;3.65;;;;;;;23.22;37.20;100313.25;4468336;32;33877;-62
2021/05/09 09:26:47;;;;;;;15.88;3.75;;;;;;;23.18;37.41;100306.59;4477032;32;33932;-60
2021/05/09 09:29:33;;;;;;;14.30;3.47;;;;;;;23.22;37.44;100307.81;4475407;32;34806;-61
2021/05/09 09:32:02;;;;;;;14.87;3.35;;;;;;;23.24;37.45;100302.16;4482084;32;33431;-60
2021/05/09 09:34:43;;;;;;;10.98;3.53;;;;;;;23.20;37.66;100298.19;4471751;32;33858;-61
2021/05/09 09:37:11;;;;;;;15.15;3.08;;;;;;;23.22;37.76;100293.34;4468209;32;34581;-61
2021/05/09 09:40:00;;;;;;;18.48;3.20;;;;;;;23.21;37.67;100295.25;4468063;32;33614;-61
2021/05/09 09:42:41;;;;;;;8.80;2.90;;;;;;;23.23;37.79;100297.78;4471002;32;33331;-61
2021/05/09 09:45:20;;;;;;;13.88;3.70;;;;;;;23.25;37.77;100290.22;4483836;32;33368;-61
2021/05/09 09:47:48;;;;;;;12.20;3.60;;;;;;;23.27;37.75;100291.69;4483959;32;33835;-60
2021/05/09 09:50:37;;;;;;;12.68;3.22;;;;;;;23.24;37.86;100297.56;4483658;32;33772;-60
2021/05/09 09:53:29;;;;;;;10.60;3.53;;;;;;;23.26;37.94;100303.62;4482013;32;33337;-61
2021/05/09 09:56:09;;;;;;;10.75;3.40;;;;;;;23.26;38.00;100298.16;4467982;32;35231;-61
2021/05/09 09:58:52;;;;;;;14.27;3.00;;;;;;;23.26;37.98;100294.59;4467951;32;33936;-61
2021/05/09 10:01:27;;;;;;;9.20;3.45;;;;;;;23.23;38.09;100293.16;4467931;32;33784;-61
2021/05/09 10:04:00;;;;;;;13.43;3.75;;;;;;;23.24;38.10;100288.56;4467821;32;33342;-61
2021/05/09 10:06:27;;;;;;;11.82;3.58;;;;;;;23.24;38.07;100289.38;4468174;32;33754;-61
2021/05/09 10:08:58;;;;;;;17.87;3.53;;;;;;;23.25;37.92;100282.06;4468087;32;35389;-62
2021/05/09 10:11:27;;;;;;;22.25;3.30;;;;;;;23.24;37.82;100289.38;4468413;32;33777;-62
2021/05/09 10:13:55;;;;;;;12.80;3.42;;;;;;;23.24;37.75;100294.00;4466691;32;33286;-60
2021/05/09 10:16:23;;;;;;;9.75;3.00;;;;;;;23.23;37.81;100287.72;4468149;32;33938;-59
2021/05/09 10:18:58;;;;;;;11.95;3.47;;;;;;;23.24;37.82;100277.66;4468683;32;33818;-61
2021/05/09 10:21:32;;;;;;;11.52;3.85;;;;;;;23.24;37.84;100269.50;4481571;32;34068;-61
2021/05/09 10:24:16;;;;;;;10.77;3.00;;;;;;;23.24;37.86;100269.50;4482842;32;33192;-60
2021/05/09 10:26:57;;;;;;;22.27;3.62;;;;;;;23.27;37.87;100266.31;4483255;32;33850;-61
2021/05/09 10:32:19;;;;;;;8.73;3.12;;;;;;;23.27;37.86;100272.62;4482454;32;33645;-60
2021/05/09 10:37:35;;;;;;;12.57;3.03;;;;;;;23.25;38.02;100254.81;4482787;32;34722;-61
2021/05/09 10:40:26;;;;;;;12.07;3.15;;;;;;;23.26;37.97;100261.94;4478597;32;34590;-61
2021/05/09 10:45:33;;;;;;;8.60;2.90;;;;;;;23.23;37.46;100257.78;4483623;32;33431;-63
2021/05/09 10:48:15;;;;;;;14.13;2.85;;;;;;;23.21;37.96;100259.03;4482816;32;34910;-62
2021/05/09 10:50:56;;;;;;;9.80;3.17;;;;;;;23.24;38.06;100247.72;4483489;32;33844;-62
2021/05/09 10:53:33;;;;;;;11.88;3.30;;;;;;;23.21;38.10;100250.84;4483066;32;33788;-63
2021/05/09 10:56:04;;;;;;;10.48;3.28;;;;;;;23.21;38.11;100248.97;4483090;32;34147;-62
2021/05/09 10:58:46;;;;;;;11.82;3.65;;;;;;;23.20;38.08;100251.91;4482887;32;33621;-59
2021/05/09 11:01:20;;;;;;;11.50;3.03;;;;;;;23.22;38.05;100247.91;4469640;32;33845;-61
2021/05/09 11:03:54;;;;;;;10.50;2.62;;;;;;;23.19;38.05;100250.25;4482748;32;33767;-63
2021/05/09 11:06:27;;;;;;;12.20;3.10;;;;;;;23.18;38.05;100252.12;4483418;32;34185;-63
2021/05/09 11:08:56;;;;;;;9.27;2.55;;;;;;;23.19;38.04;100234.75;4482689;32;34655;-62
2021/05/09 11:11:29;;;;;;;10.40;2.30;;;;;;;23.18;38.04;100246.69;4482506;32;33922;-63
2021/05/09 11:14:02;;;;;;;8.27;2.58;;;;;;;23.18;38.03;100238.53;4483047;32;33871;-63
2021/05/09 11:16:29;;;;;;;9.55;2.40;;;;;;;23.17;38.02;100229.53;4482824;32;33204;-61
2021/05/09 11:19:00;;;;;;;9.85;2.22;;;;;;;23.16;38.02;100235.16;4483054;32;33540;-62
2021/05/09 11:21:30;;;;;;;7.75;2.40;;;;;;;23.17;38.04;100228.66;4482200;32;33965;-60
2021/05/09 11:23:57;;;;;;;6.97;2.15;;;;;;;23.17;38.03;100234.13;4483205;32;33761;-62
2021/05/09 11:26:43;;;;;;;14.75;3.10;;;;;;;23.16;38.00;100232.44;4482545;32;33328;-63
2021/05/09 11:29:15;;;;;;;7.40;2.92;;;;;;;23.16;37.97;100227.00;4482725;32;34975;-63
2021/05/09 11:31:48;;;;;;;9.73;2.67;;;;;;;23.16;37.94;100227.00;4482710;32;33913;-62
2021/05/09 11:34:16;;;;;;;9.43;3.00;;;;;;;23.14;37.93;100216.34;4484167;32;34659;-62
2021/05/09 11:36:48;;;;;;;9.70;2.75;;;;;;;23.15;37.94;100220.72;4484966;32;33122;-62
2021/05/09 11:39:16;;;;;;;12.68;3.12;;;;;;;23.14;37.96;100210.91;4484352;32;33857;-62
2021/05/09 11:42:19;;;;;;;11.20;2.72;;;;;;;23.14;37.95;100216.34;4479497;32;34448;-61